• Join FlightAware (Why Join?)
  • Login
  • US Flag 
10:28AM EDT


 

Airport Tracker/Info


-or-


 

Live Flight TrackerFlight Track Log ✈ AWE858 ✈ 13-May-2013 ✈ MKJS / MBJ - KPHL

Flight Track Log - Related Links

Times and Time Zones

All times are in EDT time to prevent confusion due to time zone crossing. See the AWE858 flight status page for this flight to view local times or setup timezone preferences in your user account.

Time Position Orientation Groundspeed Altitude Reporting Facility
EDT Latitude Longitude Course Direction KTS MPH feet Rate Location/Type
01:28PM 18.8386 -77.9801 349° North  Level FlightAware Approximate
01:29PM 18.9503 -78.0024 349° North  Level FlightAware Approximate
01:30PM 19.0619 -78.0247 349° North  Level FlightAware Approximate
01:31PM 19.1735 -78.0471 349° North  Level FlightAware Approximate
01:32PM 19.2851 -78.0695 349° North  Level FlightAware Approximate
01:33PM 19.3967 -78.0919 349° North  Level FlightAware Approximate
01:34PM 19.5084 -78.1143 349° North  Level FlightAware Approximate
01:35PM 19.6200 -78.1368 349° North  Level FlightAware Approximate
01:36PM 19.7316 -78.1593 349° North  Level FlightAware Approximate
01:37PM 19.8432 -78.1819 349° North  Level FlightAware Approximate
01:38PM 19.9548 -78.2045 349° North  Level FlightAware Approximate
01:39PM 20.0664 -78.2271 349° North  Level FlightAware Approximate
01:40PM 20.1780 -78.2497 349° North  Level FlightAware Approximate
01:41PM 20.2896 -78.2724 349° North  Level FlightAware Approximate
01:42PM 20.4012 -78.2951 349° North  Level FlightAware Approximate
01:43PM 20.5128 -78.3178 349° North  Level FlightAware Approximate
01:44PM 20.6244 -78.3406 349° North  Level FlightAware Approximate
01:45PM 20.7360 -78.3634 349° North  Level FlightAware Approximate
01:46PM 20.8416 -78.3852 348° North  Level FlightAware Approximate
01:47PM 20.9528 -78.4098 348° North  Level FlightAware Approximate
01:48PM 21.0641 -78.4345 348° North  Level FlightAware Approximate
01:49PM 21.1753 -78.4593 348° North  Level FlightAware Approximate
01:50PM 21.2866 -78.4840 349° North  Level FlightAware Approximate
01:51PM 21.3982 -78.5068 349° North  Level FlightAware Approximate
01:52PM 21.5098 -78.5296 349° North  Level FlightAware Approximate
01:53PM 21.6214 -78.5525 349° North  Level FlightAware Approximate
01:54PM 21.7330 -78.5754 349° North  Level FlightAware Approximate
01:55PM 21.8445 -78.5984 349° North  Level FlightAware Approximate
01:56PM 21.9561 -78.6214 349° North  Level FlightAware Approximate
01:57PM 22.0677 -78.6444 349° North  Level FlightAware Approximate
01:58PM 22.1793 -78.6675 349° North  Level FlightAware Approximate
01:59PM 22.2909 -78.6906 349° North  Level FlightAware Approximate
02:00PM 22.4024 -78.7137 349° North  Level FlightAware Approximate
02:01PM 22.5137 -78.7384 348° North  Level FlightAware Approximate
02:02PM 22.6250 -78.7634 348° North  Level FlightAware Approximate
02:03PM 22.7362 -78.7884 348° North  Level FlightAware Approximate
02:04PM 22.8569 -78.8147 349° North  Level FlightAware Approximate
02:05PM 22.9776 -78.8411 349° North  Level FlightAware Approximate
02:06PM 23.0983 -78.8676 349° North  Level FlightAware Approximate
02:07PM 23.2190 -78.8940 349° North  Level FlightAware Approximate
02:07PM 23.2514 -78.9031 349° North 455 524 36,000  Level Miami Center
02:08PM 23.3396 -78.9206 349° North  Level FlightAware Approximate
02:08PM 23.3806 -78.9322 348° North 460 529 36,000  Level Miami Center
02:09PM 23.4603 -78.9472 349° North  Level FlightAware Approximate
02:09PM 23.5014 -78.9592 348° North 455 524 36,000  Level Miami Center
02:10PM 23.5810 -78.9738 349° North  Level FlightAware Approximate
02:10PM 23.6242 -78.9883 348° North 446 513 36,000  Level Miami Center
02:11PM 23.7017 -79.0005 349° North  Level FlightAware Approximate
02:11PM 23.7514 -79.0178 348° North 451 519 36,000  Level Miami Center
02:12PM 23.8223 -79.0272 349° North  Level FlightAware Approximate
02:12PM 23.8700 -79.0425 349° North 446 513 36,000  Level Miami Center
02:13PM 23.9969 -79.0719 348° North 452 520 36,000 240 Level Miami Center
02:14PM 24.1225 -79.0742 359° North 452 520 36,500 480 Climbing Miami Center
02:15PM 24.2481 -79.0536 North 447 514 37,000 240 Climbing Miami Center
02:16PM 24.3842 -79.0400 North 464 534 37,000  Level Miami Center
02:17PM 24.5139 -79.0194 North 464 534 37,000  Level Miami Center
02:18PM 24.6481 -79.0011 North 469 540 37,000  Level Miami Center
02:19PM 24.7883 -78.9783 North 464 534 37,000  Level Miami Center
02:20PM 24.9203 -78.9600 North 469 540 37,000  Level Miami Center
02:21PM 25.0500 -78.9417 North 469 540 37,000  Level Miami Center
02:22PM 25.1839 -78.9256 North 469 540 37,000  Level Miami Center
02:23PM 25.3181 -78.9050 North 472 543 37,000  Level Miami Center
02:24PM 25.4436 -78.8886 North 472 543 37,000  Level Miami Center
02:25PM 25.5733 -78.8700 North 467 537 37,000  Level Miami Center
02:26PM 25.7033 -78.8492 North 467 537 37,000  Level Miami Center
02:27PM 25.8331 -78.8306 North 462 532 37,000  Level Miami Center
02:28PM 25.9628 -78.8142 North 473 544 37,000  Level Miami Center
02:29PM 26.0925 -78.7908 North 473 544 37,000  Level Miami Center
02:30PM 26.2286 -78.7697 North 473 544 37,000  Level Miami Center
02:31PM 26.3583 -78.7533 North 473 544 37,000  Level Miami Center
02:32PM 26.4883 -78.7297 North 473 544 37,000  Level Miami Center
02:33PM 26.6222 -78.7158 North 467 537 37,000  Level Miami Center
02:34PM 26.7497 -78.6944 North 467 537 37,000  Level Miami Center
02:35PM 26.8817 -78.6778 North 467 537 37,000  Level Miami Center
02:36PM 26.9925 -78.6633 North 462 532 37,000  Level Miami Center
02:37PM 27.1244 -78.6419 North 467 537 37,000  Level Miami Center
02:38PM 27.2542 -78.6253 North 473 544 37,000  Level Miami Center
02:39PM 27.3881 -78.6017 North 466 536 37,000  Level Miami Center
02:40PM 27.5156 -78.5847 North 466 536 37,000  Level Miami Center
02:41PM 27.6433 -78.5656 North 466 536 37,000  Level Miami Center
02:42PM 27.7708 -78.5464 North 461 531 37,000  Level Miami Center
02:43PM 27.9025 -78.5272 North 467 537 37,000  Level Miami Center
02:44PM 28.0364 -78.5081 North 467 537 37,000  Level Miami Center
02:45PM 28.1639 -78.4886 North 467 537 37,000  Level Miami Center
02:46PM 28.2958 -78.4694 North 467 537 37,000  Level Miami Center
02:47PM 28.4211 -78.4500 North 462 532 37,000  Level Miami Center
02:48PM 28.5508 -78.4303 North 467 537 37,000  Level Miami Center
02:49PM 28.6764 -78.4086 North 467 537 37,000  Level Miami Center
02:50PM 28.8081 -78.3914 North 467 537 37,000  Level Miami Center
02:51PM 28.9375 -78.3694 North 467 537 37,000  Level Miami Center
02:52PM 29.0858 -78.3478 North 467 537 37,000  Level Miami Center
02:53PM 29.2133 -78.3281 North 472 543 37,000  Level Miami Center
02:54PM 29.3450 -78.3083 North 467 537 37,000  Level Miami Center
02:56PM 29.5731 -78.2653 North 461 531 37,000  Level Jacksonville Center
02:57PM 29.7061 -78.2494 North 474 545 37,000  Level Jacksonville Center
02:58PM 29.8389 -78.2311 North 464 534 37,000  Level Jacksonville Center
02:59PM 29.9633 -78.2058 10° North 465 535 37,000  Level Jacksonville Center
03:00PM 30.0919 -78.1853 North 465 535 37,000  Level Jacksonville Center
03:01PM 30.2231 -78.1717 North 463 533 37,000 -480 Level Jacksonville Center
03:02PM 30.3494 -78.1511 North 463 533 36,100 -960 Descending Jacksonville Center
03:03PM 30.4739 -78.1281 North 455 524 35,100 -600 Descending Jacksonville Center
03:04PM 30.6047 -78.1117 North 455 524 35,000 -60 Descending Jacksonville Center
03:05PM 30.7314 -78.0908 North 460 529 35,000  Level Jacksonville Center
03:06PM 30.8578 -78.0700 North 467 537 35,000  Level Jacksonville Center
03:07PM 30.9906 -78.0486 North 467 537 35,000  Level Jacksonville Center
03:08PM 31.1358 -78.0267 North 467 537 35,000  Level Jacksonville Center
03:09PM 31.2661 -77.9956 12° North 472 543 35,000  Level Jacksonville Center
03:10PM 31.3992 -77.9789 North 477 549 35,000  Level Jacksonville Center
03:11PM 31.5339 -77.9547 North 482 555 35,000 -60 Level Jacksonville Center
03:12PM 31.6689 -77.9353 North 482 555 34,900  Descending Jacksonville Center
03:13PM 31.8058 -77.9158 North 482 555 35,000  Climbing Jacksonville Center
03:14PM 31.9425 -77.8936 North 482 555 35,000  Level Jacksonville Center
03:15PM 32.0817 -77.8739 North 488 562 35,000  Level Jacksonville Center
03:16PM 32.2206 -77.8492 North 494 568 35,000  Level Jacksonville Center
03:17PM 32.3575 -77.8292 North 500 575 35,000  Level Jacksonville Center
03:18PM 32.4964 -77.8042 North 500 575 35,000  Level Jacksonville Center
03:19PM 32.6331 -77.7767 10° North 500 575 35,000  Level Jacksonville Center
03:20PM 32.7700 -77.7567 North 500 575 35,000  Level Jacksonville Center
03:21PM 32.9086 -77.7314 North 500 575 35,000  Level Jacksonville Center
03:22PM 33.0475 -77.7086 North 500 575 35,000  Level Jacksonville Center
03:24PM 33.2881 -77.6708 North 518 596 35,000  Level Washington Center
03:25PM 33.4283 -77.6494 North 513 590 35,000  Level Washington Center
03:26PM 33.5664 -77.6228 North 503 579 35,000  Level Washington Center
03:27PM 33.7022 -77.5989 North 503 579 35,000  Level Washington Center
03:28PM 33.8361 -77.5769 North 498 573 35,000  Level Washington Center
03:29PM 33.9658 -77.5575 North 483 556 35,000  Level Washington Center
03:30PM 34.0956 -77.5356 North 471 542 35,000 -60 Level Washington Center
03:31PM 34.2231 -77.5133 North 466 536 34,900  Descending Washington Center
03:32PM 34.3528 -77.4914 North 466 536 35,000 -120 Climbing Washington Center
03:33PM 34.4847 -77.4692 North 466 536 34,700 -660 Descending Washington Center
03:34PM 34.6125 -77.4292 14° North 466 536 33,700 -900 Descending Washington Center
03:35PM 34.7367 -77.3664 23° Northeast 479 551 33,000 -360 Descending Washington Center
03:36PM 34.8608 -77.2931 26° Northeast 479 551 33,000  Level Washington Center
03:37PM 34.9869 -77.2272 23° Northeast 479 551 33,000 -540 Level Washington Center
03:38PM 35.1089 -77.1586 25° Northeast 479 551 32,000 -960 Descending Washington Center
03:39PM 35.2350 -77.0897 24° Northeast 484 557 31,100 -540 Descending Washington Center
03:40PM 35.3483 -77.0258 25° Northeast 490 564 31,000 -60 Descending Washington Center
03:41PM 35.4722 -76.9567 24° Northeast 495 570 31,000  Level Washington Center
03:42PM 35.6003 -76.8872 24° Northeast 490 564 31,000  Level Washington Center
03:43PM 35.7367 -76.8100 25° Northeast 485 558 31,000  Level Washington Center
03:44PM 35.8583 -76.7403 25° Northeast 485 558 31,000 -60 Level Washington Center
03:45PM 35.9864 -76.6700 24° Northeast 485 558 30,900 -600 Descending Washington Center
03:46PM 36.1164 -76.5947 25° Northeast 490 564 29,900 -1,020 Descending Washington Center
03:47PM 36.2506 -76.5192 24° Northeast 502 578 28,900 -1,020 Descending Washington Center
03:48PM 36.3783 -76.4483 24° Northeast 509 586 27,900 -960 Descending Washington Center
03:49PM 36.5061 -76.3750 25° Northeast 504 580 27,000 -480 Descending Washington Center
03:50PM 36.6358 -76.3011 25° Northeast 504 580 27,000  Level Washington Center
03:51PM 36.7636 -76.2297 24° Northeast 504 580 27,000  Level Washington Center
03:52PM 36.8933 -76.1528 25° Northeast 504 580 27,000  Level Washington Center
03:53PM 37.0125 -76.0886 23° Northeast 504 580 27,000  Level Washington Center
03:54PM 37.1378 -76.0139 25° Northeast 504 580 27,000  Level Washington Center
03:55PM 37.2694 -75.9364 25° Northeast 504 580 27,000  Level Washington Center
03:56PM 37.3992 -75.8611 25° Northeast 504 580 27,000  Level Washington Center
03:57PM 37.5264 -75.7856 25° Northeast 504 580 27,000  Level Washington Center
03:58PM 37.6581 -75.7100 24° Northeast 504 580 27,000  Level Washington Center
03:59PM 37.7872 -75.6311 26° Northeast 504 580 27,000  Level Washington Center
04:00PM 37.9144 -75.5522 26° Northeast 504 580 27,000 -540 Level Washington Center
04:01PM 38.0481 -75.4758 24° Northeast 504 580 25,900 -1,680 Descending Washington Center
04:02PM 38.1750 -75.3964 26° Northeast 504 580 23,700 -1,560 Descending Washington Center
04:03PM 38.2936 -75.3192 27° Northeast 490 564 22,900 -1,080 Descending Washington Center
04:04PM 38.4103 -75.2419 27° Northeast 479 551 21,600 -1,920 Descending Washington Center
04:05PM 38.5269 -75.1669 27° Northeast 473 544 19,100 -2,520 Descending Washington Center
04:06PM 38.6411 -75.1000 25° Northeast 460 529 16,600 -2,100 Descending Washington Center
04:07PM 38.7450 -75.0275 29° Northeast 436 502 15,000 -900 Descending Washington Center
04:08PM 38.8408 -74.9653 27° Northeast 405 466 14,900 -60 Descending Washington Center
04:09PM 38.9406 -74.9031 26° Northeast 390 449 14,900  Level Washington Center
04:10PM 39.0400 -74.8381 27° Northeast 390 449 14,900 -360 Level Washington Center
04:11PM 39.1381 -74.8369 North 362 417 14,200 -1,800 Descending Washington Center
04:13PM 39.3500 -74.9000 347° North 280 322 9,000 -1,560 Descending Philadelphia TRACON
04:14PM 39.4167 -74.9167 349° North 263 303 9,000 -600 Level Philadelphia TRACON
04:15PM 39.4833 -74.9500 339° North 266 306 7,800 -1,440 Descending Philadelphia TRACON
04:16PM 39.5500 -74.9833 339° North 243 280 6,200 -900 Descending Philadelphia TRACON
04:17PM 39.6167 -75.0333 330° Northwest 251 289 6,000 -120 Descending Philadelphia TRACON
04:18PM 39.7000 -75.0000 17° North 262 302 6,000 -240 Level Philadelphia TRACON
04:19PM 39.7667 -74.9667 21° North 266 306 5,500 -540 Descending Philadelphia TRACON
04:20PM 39.8167 -74.9333 27° Northeast 228 262 5,000 -780 Descending Philadelphia TRACON
04:21PM 39.8833 -74.9500 349° North 190 219 4,000 -540 Descending Philadelphia TRACON
04:22PM 39.9167 -74.9833 323° Northwest 186 214 3,900 -600 Descending Philadelphia TRACON
04:23PM 39.9167 -75.0500 270° West 183 211 2,800 -1,080 Descending Philadelphia TRACON
04:24PM 39.9000 -75.1000 247° West 169 194 1,900 -900 Descending Philadelphia TRACON
04:25PM 39.8833 -75.1500 247° West 141 162 1,200 -720 Descending Philadelphia TRACON
04:26PM 39.8833 -75.2000 270° West 109 125 400 -720 Descending Philadelphia TRACON